Time;durP1;ratioP1;P1;durP2;ratioP2;P2;SDS_P1;SDS_P2;PMS_P1;PMS_P2;Temp;Humidity;BMP_temperature;BMP_pressure;BME280_temperature;BME280_humidity;BME280_pressure;Samples;Min_cycle;Max_cycle;Signal;HPM_P1;HPM_P2
2022/10/21 00:02:28;;;;;;;;;;;12.60;99.90;;;11.81;100.00;95621.81;10536432;28;1886;-73
2022/10/21 00:07:31;;;;;;;;;;;12.70;99.90;;;11.79;100.00;95623.16;10541031;28;1095;-73
2022/10/21 00:12:34;;;;;;;;;;;12.70;99.90;;;11.88;100.00;95618.78;10538279;28;1700;-72
2022/10/21 00:17:38;;;;;;;;;;;12.70;99.90;;;12.01;100.00;95622.69;10540915;28;1117;-73
2022/10/21 00:22:41;;;;;;;;;;;12.80;99.90;;;11.99;100.00;95622.97;10535681;28;1914;-75
2022/10/21 00:27:53;;;;;;;;;;;12.80;99.90;;;12.07;100.00;95605.38;10518678;28;1680;-72
2022/10/21 00:32:57;;;;;;;;;;;12.90;99.90;;;12.14;100.00;95611.22;10504780;28;1154;-73
2022/10/21 00:38:04;;;;;;;;;;;13.00;99.90;;;12.17;100.00;95610.66;10535569;28;1628;-73
2022/10/21 00:43:08;;;;;;;;;;;13.00;99.90;;;12.20;100.00;95611.97;10532952;28;1905;-71
2022/10/21 00:48:11;;;;;;;;;;;13.00;99.90;;;12.22;100.00;95591.75;10532837;28;1389;-74
2022/10/21 00:53:14;;;;;;;;;;;13.10;99.90;;;12.30;100.00;95596.50;10534514;28;1687;-73
2022/10/21 00:58:17;;;;;;;;;;;13.10;99.90;;;12.35;100.00;95612.59;10531105;28;1450;-73
2022/10/21 01:03:20;;;;;;;;;;;13.10;99.90;;;12.33;100.00;95595.91;10534120;28;1917;-73
2022/10/21 01:08:24;;;;;;;;;;;13.10;99.90;;;12.40;100.00;95609.81;10534484;28;1314;-73
2022/10/21 01:13:27;;;;;;;;;;;13.20;99.90;;;12.39;100.00;95602.81;10534532;28;1668;-72
2022/10/21 01:18:31;;;;;;;;;;;13.20;99.90;;;12.48;100.00;95599.50;10544037;28;971;-72
2022/10/21 01:23:34;;;;;;;;;;;13.20;99.90;;;12.43;100.00;95601.16;10538748;28;1917;-72
2022/10/21 01:28:37;;;;;;;;;;;13.30;99.90;;;12.33;100.00;95600.50;10518542;28;1826;-73
2022/10/21 01:33:40;;;;;;;;;;;13.20;99.90;;;12.42;100.00;95588.78;10502773;28;1798;-74
2022/10/21 01:38:43;;;;;;;;;;;13.20;99.90;;;12.40;100.00;95585.56;10541165;28;1053;-73
2022/10/21 01:43:48;;;;;;;;;;;13.30;99.90;;;12.39;100.00;95588.56;10533156;28;1972;-73
2022/10/21 01:48:51;;;;;;;;;;;13.30;99.90;;;12.42;100.00;95583.41;10539948;28;1172;-73
2022/10/21 01:53:56;;;;;;;;;;;13.30;99.90;;;12.40;100.00;95568.59;10531485;28;1687;-74
2022/10/21 01:58:59;;;;;;;;;;;13.30;99.90;;;12.26;100.00;95559.63;10541218;28;1204;-73
2022/10/21 02:04:02;;;;;;;;;;;13.20;99.90;;;12.09;100.00;95554.72;10533420;28;2029;-73
2022/10/21 02:09:04;;;;;;;;;;;13.00;99.90;;;12.02;100.00;95555.03;10540404;28;1132;-71
2022/10/21 02:14:08;;;;;;;;;;;12.90;99.90;;;11.93;100.00;95551.41;10533881;28;1764;-73
2022/10/21 02:19:10;;;;;;;;;;;12.90;99.90;;;11.85;100.00;95552.03;10538789;28;1640;-71
2022/10/21 02:24:13;;;;;;;;;;;12.80;99.90;;;11.84;100.00;95553.13;10534065;28;1975;-72
2022/10/21 02:29:16;;;;;;;;;;;12.80;99.90;;;11.93;100.00;95555.97;10512269;28;1177;-73
2022/10/21 02:34:20;;;;;;;;;;;12.80;99.90;;;11.99;100.00;95552.94;10514768;28;1521;-71
2022/10/21 02:39:26;;;;;;;;;;;12.80;99.90;;;11.90;100.00;95544.69;10538431;28;1112;-73
2022/10/21 02:44:29;;;;;;;;;;;12.80;99.90;;;11.92;100.00;95546.31;10536335;28;1906;-73
2022/10/21 02:49:32;;;;;;;;;;;12.80;99.90;;;12.03;100.00;95520.84;10538033;28;1035;-72
2022/10/21 02:54:35;;;;;;;;;;;12.80;99.90;;;11.96;100.00;95504.22;10533355;28;1655;-73
2022/10/21 02:59:37;;;;;;;;;;;12.90;99.90;;;11.98;100.00;95502.84;10537776;28;1089;-72
2022/10/21 03:04:40;;;;;;;;;;;12.80;99.90;;;11.88;100.00;95487.59;10520593;28;1910;-72
2022/10/21 03:09:43;;;;;;;;;;;12.90;99.90;;;11.86;100.00;95487.09;10540750;28;988;-72
2022/10/21 03:14:46;;;;;;;;;;;12.70;99.90;;;11.82;100.00;95486.06;10554025;28;1697;-73
2022/10/21 03:19:49;;;;;;;;;;;12.70;99.90;;;11.75;100.00;95495.56;10537061;28;1684;-72
2022/10/21 03:24:51;;;;;;;;;;;12.70;99.90;;;11.72;100.00;95505.03;10532361;28;1918;-73
2022/10/21 03:29:54;;;;;;;;;;;12.60;99.90;;;11.84;100.00;95502.75;10506392;28;1212;-73
2022/10/21 03:34:57;;;;;;;;;;;12.70;99.90;;;11.97;100.00;95486.97;10519555;28;1783;-71
2022/10/21 03:40:00;;;;;;;;;;;12.80;99.90;;;12.05;100.00;95492.53;10533944;28;1569;-74
2022/10/21 03:45:02;;;;;;;;;;;12.80;99.90;;;12.03;100.00;95488.53;10535908;28;1965;-73
2022/10/21 03:50:06;;;;;;;;;;;12.90;99.90;;;12.19;100.00;95473.75;10528874;28;1762;-76
2022/10/21 03:55:16;;;;;;;;;;;13.00;99.90;;;12.17;100.00;95470.53;10530971;28;1477;-73
2022/10/21 04:00:18;;;;;;;;;;;13.00;99.90;;;12.12;100.00;95466.00;10534779;28;1366;-72
2022/10/21 04:05:22;;;;;;;;;;;13.00;99.90;;;12.25;100.00;95439.44;10530913;28;1907;-71
2022/10/21 04:10:24;;;;;;;;;;;13.10;99.90;;;12.21;100.00;95441.91;10535457;28;908;-73
2022/10/21 04:15:27;;;;;;;;;;;13.20;99.90;;;12.21;100.00;95433.81;10527402;28;1101;-73
2022/10/21 04:20:30;;;;;;;;;;;13.10;99.90;;;11.92;100.00;95433.97;10528057;28;1684;-72
2022/10/21 04:25:32;;;;;;;;;;;13.00;99.90;;;11.80;100.00;95420.09;10530780;28;1978;-73
2022/10/21 04:30:35;;;;;;;;;;;12.90;99.90;;;11.86;100.00;95409.00;10498510;28;1152;-72
2022/10/21 04:35:38;;;;;;;;;;;12.80;99.90;;;11.79;100.00;95405.84;10522104;28;1398;-72
2022/10/21 04:40:41;;;;;;;;;;;12.80;99.90;;;12.03;100.00;95407.72;10534681;28;999;-73
2022/10/21 04:45:44;;;;;;;;;;;12.80;99.90;;;11.90;100.00;95399.25;10529196;28;1934;-70
2022/10/21 04:50:51;;;;;;;;;;;12.80;99.90;;;11.72;100.00;95377.66;10537587;28;1114;-73
2022/10/21 04:55:54;;;;;;;;;;;12.90;99.90;;;11.67;100.00;95373.16;10531828;28;1620;-72
2022/10/21 05:00:56;;;;;;;;;;;12.70;99.90;;;11.49;100.00;95363.94;10542153;28;1151;-71
2022/10/21 05:05:59;;;;;;;;;;;12.60;99.90;;;11.42;100.00;95362.72;10537381;28;1918;-73
2022/10/21 05:11:02;;;;;;;;;;;12.50;99.90;;;11.52;100.00;95371.47;10542216;28;1082;-72
2022/10/21 05:16:05;;;;;;;;;;;12.40;99.90;;;11.49;100.00;95365.84;10538891;28;2553;-73
2022/10/21 05:21:13;;;;;;;;;;;12.40;99.90;;;11.33;100.00;95347.22;10542668;28;941;-73
2022/10/21 05:26:16;;;;;;;;;;;12.40;99.90;;;11.46;100.00;95339.53;10530433;28;1914;-74
2022/10/21 05:31:18;;;;;;;;;;;12.40;99.90;;;11.46;100.00;95339.53;10499146;28;1196;-72
2022/10/21 05:36:21;;;;;;;;;;;12.40;99.90;;;11.38;100.00;95340.94;10529290;28;1485;-73
2022/10/21 05:41:30;;;;;;;;;;;12.40;99.90;;;11.48;100.00;95350.78;10541337;28;882;-72
2022/10/21 05:46:33;;;;;;;;;;;12.40;99.90;;;11.50;100.00;95352.09;10539330;28;1926;-73
2022/10/21 05:51:36;;;;;;;;;;;12.40;99.90;;;11.45;100.00;95359.44;10539904;28;1365;-72
2022/10/21 05:56:41;;;;;;;;;;;12.40;99.90;;;11.65;100.00;95348.41;10535037;28;1782;-73
2022/10/21 06:01:44;;;;;;;;;;;12.50;99.90;;;11.47;100.00;95341.13;10538377;28;1133;-72
2022/10/21 06:06:47;;;;;;;;;;;12.40;99.90;;;11.47;100.00;95346.50;10537928;28;1918;-73
2022/10/21 06:11:50;;;;;;;;;;;12.40;99.90;;;11.57;100.00;95346.34;10548596;28;1636;-72
2022/10/21 06:16:55;;;;;;;;;;;12.40;99.90;;;11.76;100.00;95355.25;10539576;28;1136;-72
2022/10/21 06:21:58;;;;;;;;;;;12.60;99.90;;;11.89;100.00;95343.75;10538598;28;1800;-75
2022/10/21 06:27:00;;;;;;;;;;;12.70;99.90;;;11.99;100.00;95347.41;10528616;28;1993;-73
2022/10/21 06:32:03;;;;;;;;;;;12.80;99.90;;;12.02;100.00;95352.19;10497786;28;1162;-72
2022/10/21 06:37:06;;;;;;;;;;;12.90;99.90;;;12.25;100.00;95355.91;10535791;28;1154;-73
2022/10/21 06:42:09;;;;;;;;;;;12.90;99.90;;;12.36;100.00;95347.34;10536865;28;1664;-73
2022/10/21 06:47:12;;;;;;;;;;;13.10;99.90;;;12.40;100.00;95337.56;10537284;28;1922;-72
2022/10/21 06:52:14;;;;;;;;;;;13.20;99.90;;;12.25;100.00;95335.13;10536068;28;1687;-73
2022/10/21 06:57:17;;;;;;;;;;;13.10;99.90;;;12.30;100.00;95318.09;10536192;28;1474;-72
2022/10/21 07:02:20;;;;;;;;;;;13.10;99.90;;;12.23;100.00;95313.09;10536686;28;1502;-74
2022/10/21 07:07:23;;;;;;;;;;;13.20;99.90;;;12.23;100.00;95325.75;10536371;28;1930;-73
2022/10/21 07:12:25;;;;;;;;;;;13.10;99.90;;;12.35;100.00;95307.25;10531172;28;1707;-73
2022/10/21 07:17:28;;;;;;;;;;;13.10;99.90;;;12.49;100.00;95307.25;10536440;28;1085;-73
2022/10/21 07:22:37;;;;;;;;;;;13.20;99.90;;;12.42;100.00;95300.34;10531492;28;1746;-74
2022/10/21 07:27:40;;;;;;;;;;;13.20;99.90;;;12.65;100.00;95300.47;10523887;28;1992;-73
2022/10/21 07:32:47;;;;;;;;;;;13.40;99.90;;;12.81;100.00;95291.03;10501454;28;1182;-72
2022/10/21 07:37:50;;;;;;;;;;;13.60;99.90;;;12.93;100.00;95282.44;10528609;28;1613;-73
2022/10/21 07:42:53;;;;;;;;;;;13.60;99.90;;;13.10;100.00;95285.31;10535481;28;3277;-72
2022/10/21 07:47:55;;;;;;;;;;;13.80;99.90;;;13.33;100.00;95278.13;10532737;28;1045;-73
2022/10/21 07:52:59;;;;;;;;;;;13.90;99.90;;;13.15;100.00;95271.72;10531896;28;1739;-73
2022/10/21 07:58:14;;;;;;;;;;;14.00;99.90;;;13.41;100.00;95263.91;10531118;28;1449;-73
2022/10/21 08:03:17;;;;;;;;;;;14.10;99.90;;;13.69;100.00;95270.03;10535970;28;1906;-72
2022/10/21 08:08:20;;;;;;;;;;;14.30;99.90;;;14.07;100.00;95264.28;10527583;28;1620;-71
2022/10/21 08:13:23;;;;;;;;;;;14.60;99.90;;;14.16;100.00;95272.44;10534303;28;1879;-73
2022/10/21 08:18:26;;;;;;;;;;;14.80;99.90;;;14.12;100.00;95256.03;10534282;28;1898;-73
2022/10/21 08:23:29;;;;;;;;;;;14.90;99.90;;;14.15;100.00;95260.03;10530671;28;1913;-72
2022/10/21 08:28:31;;;;;;;;;;;14.90;99.90;;;14.27;100.00;95271.09;10522710;28;1722;-73
2022/10/21 08:33:34;;;;;;;;;;;14.90;99.90;;;14.43;100.00;95247.16;10513654;28;1418;-74
2022/10/21 08:38:37;;;;;;;;;;;15.20;99.90;;;14.85;100.00;95245.78;10543125;28;1117;-73
2022/10/21 08:43:40;;;;;;;;;;;15.40;99.90;;;15.02;100.00;95256.66;10541892;28;1907;-73
2022/10/21 08:48:42;;;;;;;;;;;15.70;99.90;;;15.17;100.00;95244.59;10541051;28;1715;-72
2022/10/21 08:53:45;;;;;;;;;;;15.80;99.90;;;15.40;100.00;95253.41;10557251;28;1148;-74
2022/10/21 08:58:48;;;;;;;;;;;16.00;99.90;;;15.23;100.00;95247.97;10538486;28;1919;-72
2022/10/21 09:03:53;;;;;;;;;;;16.00;99.90;;;15.10;100.00;95253.19;10533786;28;1914;-72
2022/10/21 09:08:56;;;;;;;;;;;16.00;99.90;;;15.27;100.00;95254.31;10544221;28;1203;-72
2022/10/21 09:13:59;;;;;;;;;;;16.00;99.90;;;15.18;100.00;95264.34;10540220;28;1644;-74
2022/10/21 09:19:01;;;;;;;;;;;16.00;99.90;;;14.90;100.00;95263.78;10541742;28;1085;-72
2022/10/21 09:24:04;;;;;;;;;;;15.90;99.90;;;15.21;100.00;95279.97;10539552;28;1909;-72
2022/10/21 09:29:07;;;;;;;;;;;15.90;99.90;;;15.08;100.00;95279.78;10517949;28;1156;-71
2022/10/21 09:34:10;;;;;;;;;;;16.10;99.90;;;15.45;100.00;95290.34;10517303;28;1656;-73
2022/10/21 09:39:13;;;;;;;;;;;16.20;99.90;;;15.56;100.00;95307.91;10540527;28;1188;-72
2022/10/21 09:44:16;;;;;;;;;;;16.20;99.90;;;15.59;100.00;95318.94;10539729;28;1946;-73
2022/10/21 09:49:18;;;;;;;;;;;16.30;99.90;;;15.40;100.00;95326.53;10540195;28;1022;-73
2022/10/21 09:54:44;;;;;;;;;;;16.20;99.90;;;15.37;100.00;95392.16;10531319;28;1466;-74
2022/10/21 09:59:47;;;;;;;;;;;16.20;99.90;;;15.02;100.00;95429.91;10541454;28;1133;-75
2022/10/21 10:04:50;;;;;;;;;;;15.90;99.90;;;14.51;100.00;95430.34;10541287;28;1900;-75
2022/10/21 10:09:53;;;;;;;;;;;15.50;99.90;;;14.31;100.00;95443.22;10540824;28;935;-73
2022/10/21 10:14:56;;;;;;;;;;;15.20;99.90;;;13.95;100.00;95424.25;10538337;28;1691;-73
2022/10/21 10:19:58;;;;;;;;;;;15.00;99.90;;;13.91;100.00;95439.47;10535323;28;1703;-73
2022/10/21 10:25:01;;;;;;;;;;;14.80;99.90;;;13.88;100.00;95450.91;10534770;28;1975;-75
2022/10/21 10:30:05;;;;;;;;;;;14.70;99.90;;;13.94;100.00;95463.19;10507332;28;1124;-75
2022/10/21 10:35:11;;;;;;;;;;;14.90;99.90;;;13.93;100.00;95456.19;10519808;28;1620;-73
2022/10/21 10:40:14;;;;;;;;;;;14.70;99.90;;;13.95;100.00;95472.09;10537600;28;1359;-74
2022/10/21 10:45:18;;;;;;;;;;;14.70;99.90;;;14.03;100.00;95485.69;10532935;28;1973;-76
2022/10/21 10:50:25;;;;;;;;;;;14.80;99.90;;;14.19;100.00;95458.34;10532256;28;1640;-75
2022/10/21 10:55:28;;;;;;;;;;;14.80;99.90;;;14.26;100.00;95429.00;10534480;28;1406;-75
2022/10/21 11:00:32;;;;;;;;;;;15.00;99.90;;;14.26;100.00;95450.63;10537948;28;1177;-77
2022/10/21 11:05:35;;;;;;;;;;;15.10;99.90;;;14.27;100.00;95463.84;10532013;28;1976;-78
2022/10/21 11:10:39;;;;;;;;;;;15.10;99.90;;;14.58;100.00;95485.63;10537939;28;1144;-74
2022/10/21 11:15:42;;;;;;;;;;;15.30;99.90;;;14.58;100.00;95447.75;10535756;28;1636;-76
2022/10/21 11:20:45;;;;;;;;;;;15.30;99.90;;;14.50;100.00;95477.41;10537125;28;1079;-76
2022/10/21 11:25:47;;;;;;;;;;;15.20;99.90;;;14.51;100.00;95503.38;10523769;28;1957;-73
2022/10/21 11:30:50;;;;;;;;;;;15.30;99.90;;;14.77;100.00;95519.81;10499193;28;1160;-72
2022/10/21 11:35:54;;;;;;;;;;;15.50;99.90;;;14.91;100.00;95503.53;10521898;28;1481;-73
2022/10/21 11:41:00;;;;;;;;;;;15.50;99.90;;;14.84;100.00;95520.19;10534322;28;1706;-72
2022/10/21 11:46:02;;;;;;;;;;;15.60;99.90;;;14.70;100.00;95519.44;10533796;28;1977;-73
2022/10/21 11:51:06;;;;;;;;;;;15.60;99.90;;;14.59;100.00;95519.66;10527395;28;1581;-73
2022/10/21 11:56:11;;;;;;;;;;;15.50;99.90;;;14.77;100.00;95511.72;10530686;28;1469;-71
2022/10/21 12:01:14;;;;;;;;;;;15.60;99.90;;;15.22;100.00;95509.00;10535047;28;1156;-73
2022/10/21 12:06:17;;;;;;;;;;;15.70;99.90;;;15.30;100.00;95497.41;10533757;28;1983;-72
2022/10/21 12:11:20;;;;;;;;;;;15.90;99.90;;;15.53;100.00;95488.16;10539507;28;786;-72
2022/10/21 12:16:23;;;;;;;;;;;16.10;99.90;;;15.95;100.00;95489.44;10530703;28;1648;-71
2022/10/21 12:21:25;;;;;;;;;;;16.40;99.90;;;16.16;100.00;95484.25;10531637;28;1643;-72
2022/10/21 12:26:28;;;;;;;;;;;16.70;99.90;;;16.31;100.00;95487.63;10530463;28;1906;-72
2022/10/21 12:31:31;;;;;;;;;;;16.90;99.90;;;16.45;100.00;95486.34;10493195;28;1047;-72
2022/10/21 12:36:34;;;;;;;;;;;17.10;99.90;;;16.49;100.00;95491.97;10525106;28;1442;-71
2022/10/21 12:41:38;;;;;;;;;;;17.20;99.90;;;16.73;100.00;95492.31;10536133;28;829;-73
2022/10/21 12:46:41;;;;;;;;;;;17.30;99.90;;;16.75;100.00;95497.44;10531362;28;1902;-73
2022/10/21 12:51:45;;;;;;;;;;;17.40;99.90;;;16.89;100.00;95491.81;10532071;28;1664;-71
2022/10/21 12:56:48;;;;;;;;;;;17.50;99.90;;;16.79;100.00;95492.94;10530638;28;1470;-71
2022/10/21 13:01:51;;;;;;;;;;;17.50;99.90;;;16.75;100.00;95484.66;10533687;28;1498;-72
2022/10/21 13:06:54;;;;;;;;;;;17.50;99.90;;;16.89;100.00;95483.69;10530779;28;1981;-73
2022/10/21 13:11:57;;;;;;;;;;;17.60;99.90;;;16.99;100.00;95483.38;10534092;28;1632;-73
2022/10/21 13:17:00;;;;;;;;;;;17.60;99.90;;;16.99;100.00;95486.09;10541681;28;1156;-73
2022/10/21 13:22:03;;;;;;;;;;;17.60;99.90;;;16.94;100.00;95476.19;10540400;28;1683;-75
2022/10/21 13:27:06;;;;;;;;;;;17.70;99.90;;;16.44;100.00;95486.69;10530347;28;1976;-72
2022/10/21 13:32:08;;;;;;;;;;;17.50;99.90;;;16.01;100.00;95503.66;10500826;28;1155;-72
2022/10/21 13:37:11;;;;;;;;;;;17.10;99.90;;;15.58;100.00;95501.53;10536427;28;1698;-71
2022/10/21 13:42:14;;;;;;;;;;;16.80;99.90;;;15.37;100.00;95512.09;10539143;28;1659;-73
2022/10/21 13:47:19;;;;;;;;;;;16.50;99.90;;;15.09;100.00;95526.91;10547644;28;1985;-72
2022/10/21 13:52:22;;;;;;;;;;;16.30;99.90;;;14.79;100.00;95521.09;10531451;28;1628;-76
2022/10/21 13:57:25;;;;;;;;;;;16.20;99.90;;;14.56;100.00;95528.38;10535340;28;1450;-75
2022/10/21 14:02:28;;;;;;;;;;;15.70;99.90;;;14.44;100.00;95530.81;10538659;28;1522;-75
2022/10/21 14:07:31;;;;;;;;;;;15.50;99.90;;;14.28;100.00;95526.81;10540974;28;1910;-75
2022/10/21 14:12:34;;;;;;;;;;;15.30;99.90;;;14.16;100.00;95521.13;10539235;28;1564;-77
2022/10/21 14:17:38;;;;;;;;;;;15.20;99.90;;;14.16;100.00;95530.03;10541284;28;1102;-75
2022/10/21 14:22:41;;;;;;;;;;;15.10;99.90;;;14.11;100.00;95519.31;10530159;28;1569;-76
2022/10/21 14:27:45;;;;;;;;;;;15.10;99.90;;;14.18;100.00;95502.69;10523668;28;1906;-73
2022/10/21 14:32:48;;;;;;;;;;;15.10;99.90;;;14.17;100.00;95506.50;10501484;28;1909;-73
2022/10/21 14:37:51;;;;;;;;;;;15.10;99.90;;;14.26;100.00;95507.41;10534367;28;1134;-74
2022/10/21 14:42:54;;;;;;;;;;;15.10;99.90;;;14.27;100.00;95506.28;10534962;28;1632;-75
2022/10/21 14:47:57;;;;;;;;;;;15.20;99.90;;;14.31;100.00;95508.09;10537640;28;1910;-75
2022/10/21 14:53:00;;;;;;;;;;;15.20;99.90;;;14.27;100.00;95498.19;10532476;28;1660;-74
2022/10/21 14:58:03;;;;;;;;;;;15.20;99.90;;;14.26;100.00;95504.69;10534006;28;1454;-75
2022/10/21 15:03:06;;;;;;;;;;;15.20;99.90;;;14.15;100.00;95511.41;10537480;28;1573;-74
2022/10/21 15:08:10;;;;;;;;;;;15.10;99.90;;;14.09;100.00;95521.53;10537967;28;1972;-75
2022/10/21 15:13:12;;;;;;;;;;;15.00;99.90;;;14.00;100.00;95517.94;10541533;28;1557;-74
2022/10/21 15:18:15;;;;;;;;;;;15.00;99.90;;;13.98;100.00;95529.03;10537631;28;1343;-74
2022/10/21 15:23:18;;;;;;;;;;;14.90;99.90;;;13.89;100.00;95506.53;10528783;28;1648;-75
2022/10/21 15:28:22;;;;;;;;;;;14.90;99.90;;;13.81;100.00;95520.75;10511717;28;1979;-74
2022/10/21 15:33:25;;;;;;;;;;;14.80;99.90;;;13.80;100.00;95521.81;10498840;28;1470;-74
2022/10/21 15:38:28;;;;;;;;;;;14.70;99.90;;;13.75;100.00;95511.13;10535909;28;1200;-75
2022/10/21 15:43:31;;;;;;;;;;;14.80;99.90;;;13.74;100.00;95510.34;10531828;28;1696;-75
2022/10/21 15:48:34;;;;;;;;;;;14.70;99.90;;;13.74;100.00;95510.34;10536505;28;1975;-74
2022/10/21 15:53:37;;;;;;;;;;;14.70;99.90;;;13.71;100.00;95515.53;10534217;28;1718;-77
2022/10/21 15:58:45;;;;;;;;;;;14.60;99.90;;;13.61;100.00;95515.72;10531385;28;1667;-75
2022/10/21 16:03:48;;;;;;;;;;;14.60;99.90;;;13.59;100.00;95512.50;10527537;28;1596;-73
2022/10/21 16:08:51;;;;;;;;;;;14.50;99.90;;;13.61;100.00;95505.69;10534716;28;1985;-73
2022/10/21 16:13:54;;;;;;;;;;;14.50;99.90;;;13.56;100.00;95513.91;10525891;28;1663;-75
2022/10/21 16:18:58;;;;;;;;;;;14.50;99.90;;;13.58;100.00;95508.22;10534862;28;1128;-74
2022/10/21 16:24:01;;;;;;;;;;;14.50;99.90;;;13.58;100.00;95500.91;10534099;28;1707;-74
2022/10/21 16:29:04;;;;;;;;;;;14.60;99.90;;;13.58;100.00;95513.63;10511038;28;1914;-74
2022/10/21 16:34:07;;;;;;;;;;;14.50;99.90;;;13.56;100.00;95516.63;10510554;28;1418;-75
2022/10/21 16:39:10;;;;;;;;;;;14.50;99.90;;;13.58;100.00;95519.03;10534092;28;1160;-74
2022/10/21 16:44:13;;;;;;;;;;;14.50;99.90;;;13.66;100.00;95529.13;10528554;28;1684;-75
2022/10/21 16:49:15;;;;;;;;;;;14.50;99.90;;;13.66;100.00;95529.13;10541549;28;1977;-75
2022/10/21 16:54:18;;;;;;;;;;;14.60;99.90;;;13.70;100.00;95535.53;10531861;28;1715;-73
2022/10/21 16:59:21;;;;;;;;;;;14.70;99.90;;;13.69;100.00;95533.94;10534250;28;1113;-74
2022/10/21 17:04:24;;;;;;;;;;;14.70;99.90;;;13.69;100.00;95520.44;10535225;28;1466;-74
2022/10/21 17:09:27;;;;;;;;;;;14.60;99.90;;;13.68;100.00;95538.53;10541724;28;1918;-72
2022/10/21 17:14:29;;;;;;;;;;;14.70;99.90;;;13.57;100.00;95525.53;10538998;28;1648;-74
2022/10/21 17:19:34;;;;;;;;;;;14.50;99.90;;;13.45;100.00;95524.09;10539810;28;1640;-74
2022/10/21 17:24:37;;;;;;;;;;;14.50;99.90;;;13.34;100.00;95530.78;10530707;28;1521;-73
2022/10/21 17:29:40;;;;;;;;;;;14.30;99.90;;;13.34;100.00;95521.88;10511171;28;1906;-74
2022/10/21 17:34:43;;;;;;;;;;;14.30;99.90;;;13.28;100.00;95521.16;10516474;28;1430;-73
2022/10/21 17:39:46;;;;;;;;;;;14.20;99.90;;;13.26;100.00;95523.34;10541662;28;1184;-74
2022/10/21 17:44:48;;;;;;;;;;;14.10;99.90;;;13.24;100.00;95512.88;10534719;28;1616;-76
2022/10/21 17:49:51;;;;;;;;;;;14.20;99.90;;;13.21;100.00;95518.03;10541708;28;1975;-77
2022/10/21 17:54:54;;;;;;;;;;;14.20;99.90;;;13.27;100.00;95516.84;10533979;28;1663;-74
2022/10/21 17:59:58;;;;;;;;;;;14.10;99.90;;;13.24;100.00;95506.66;10538217;28;1152;-74
2022/10/21 18:05:01;;;;;;;;;;;14.10;99.90;;;13.22;100.00;95514.25;10537801;28;1589;-75
2022/10/21 18:10:04;;;;;;;;;;;14.10;99.90;;;13.14;100.00;95506.81;10537889;28;2311;-74
2022/10/21 18:15:07;;;;;;;;;;;14.10;99.90;;;13.13;100.00;95516.00;10540486;28;1703;-74
2022/10/21 18:20:09;;;;;;;;;;;14.00;99.90;;;13.10;100.00;95517.38;10542083;28;1126;-75
2022/10/21 18:25:12;;;;;;;;;;;14.00;99.90;;;13.14;100.00;95506.81;10530156;28;1640;-73
2022/10/21 18:30:15;;;;;;;;;;;14.00;99.90;;;13.18;100.00;95486.22;10507018;28;1991;-73
2022/10/21 18:35:18;;;;;;;;;;;14.10;99.90;;;13.21;100.00;95485.66;10523889;28;1458;-73
2022/10/21 18:40:21;;;;;;;;;;;14.10;99.90;;;13.25;100.00;95486.69;10533270;28;1122;-76
2022/10/21 18:45:24;;;;;;;;;;;14.20;99.90;;;13.28;100.00;95480.66;10535190;28;1671;-74
2022/10/21 18:50:27;;;;;;;;;;;14.10;99.90;;;13.32;100.00;95478.97;10531953;28;1917;-74
2022/10/21 18:55:30;;;;;;;;;;;14.20;99.90;;;13.37;100.00;95468.09;10533705;28;1524;-74
2022/10/21 19:00:33;;;;;;;;;;;14.30;99.90;;;13.42;100.00;95462.59;10538243;28;1113;-74
2022/10/21 19:05:39;;;;;;;;;;;14.30;99.90;;;13.46;100.00;95469.00;10536325;28;1521;-74
2022/10/21 19:10:43;;;;;;;;;;;14.40;99.90;;;13.48;100.00;95466.78;10537388;28;1913;-76
2022/10/21 19:15:45;;;;;;;;;;;14.40;99.90;;;13.50;100.00;95466.50;10524109;28;2432;-74
2022/10/21 19:20:48;;;;;;;;;;;14.40;99.90;;;13.54;100.00;95454.00;10536721;28;1516;-75
2022/10/21 19:25:51;;;;;;;;;;;14.50;99.90;;;13.53;100.00;95465.91;10532343;28;1485;-75
2022/10/21 19:30:55;;;;;;;;;;;14.50;99.90;;;13.55;100.00;95469.13;10497860;28;1989;-75
2022/10/21 19:35:58;;;;;;;;;;;14.40;99.90;;;13.54;100.00;95462.09;10526857;28;1466;-75
2022/10/21 19:41:01;;;;;;;;;;;14.40;99.90;;;13.53;100.00;95466.69;10535744;28;1105;-74
2022/10/21 19:46:04;;;;;;;;;;;14.40;99.90;;;13.58;100.00;95467.72;10534292;28;1901;-74
2022/10/21 19:51:07;;;;;;;;;;;14.50;99.90;;;13.62;100.00;95469.50;10534334;28;1250;-73
2022/10/21 19:56:15;;;;;;;;;;;14.50;99.90;;;13.58;100.00;95468.50;10530734;28;1733;-74
2022/10/21 20:01:18;;;;;;;;;;;14.40;99.90;;;13.68;100.00;95472.91;10536317;28;1069;-74
2022/10/21 20:06:21;;;;;;;;;;;14.50;99.90;;;13.63;100.00;95475.72;10534934;28;1985;-74
2022/10/21 20:11:24;;;;;;;;;;;14.50;99.90;;;13.59;100.00;95480.09;10535587;28;947;-73
2022/10/21 20:16:27;;;;;;;;;;;14.50;99.90;;;13.64;100.00;95467.31;10533855;28;1659;-76
2022/10/21 20:21:31;;;;;;;;;;;14.50;99.90;;;13.64;100.00;95459.19;10527361;28;1706;-75
2022/10/21 20:26:34;;;;;;;;;;;14.60;99.90;;;13.65;100.00;95431.09;10546554;28;1981;-75
2022/10/21 20:31:37;;;;;;;;;;;14.50;99.90;;;13.60;100.00;95416.88;10494662;28;1090;-74
2022/10/21 20:36:40;;;;;;;;;;;14.60;99.90;;;13.57;100.00;95409.41;10530189;28;1532;-77
2022/10/21 20:41:42;;;;;;;;;;;14.60;99.90;;;13.52;100.00;95430.00;10536997;28;870;-74
2022/10/21 20:46:45;;;;;;;;;;;14.40;99.90;;;13.44;100.00;95425.31;10532844;28;1913;-75
2022/10/21 20:51:48;;;;;;;;;;;14.40;99.90;;;13.38;100.00;95412.19;10530550;28;1699;-74
2022/10/21 20:56:51;;;;;;;;;;;14.40;99.90;;;13.31;100.00;95423.41;10530909;28;1514;-74
2022/10/21 21:01:54;;;;;;;;;;;14.30;99.90;;;13.30;100.00;95423.69;10534716;28;1181;-75
2022/10/21 21:06:57;;;;;;;;;;;14.20;99.90;;;13.28;100.00;95415.88;10531243;28;1949;-75
2022/10/21 21:12:01;;;;;;;;;;;14.30;99.90;;;13.25;100.00;95403.78;10534260;28;1617;-78
2022/10/21 21:17:08;;;;;;;;;;;14.20;99.90;;;13.17;100.00;95409.06;10538736;28;1199;-76
2022/10/21 21:22:11;;;;;;;;;;;14.20;99.90;;;13.14;100.00;95404.25;10534019;28;1636;-74
2022/10/21 21:27:14;;;;;;;;;;;14.00;99.90;;;13.03;100.00;95416.31;10525467;28;1914;-75
2022/10/21 21:32:17;;;;;;;;;;;14.10;99.90;;;13.06;100.00;95413.03;10497451;28;1147;-74
2022/10/21 21:37:20;;;;;;;;;;;14.00;99.90;;;13.12;100.00;95407.25;10539922;28;1711;-75
2022/10/21 21:42:23;;;;;;;;;;;14.00;99.90;;;13.13;100.00;95408.06;10538886;28;1601;-74
2022/10/21 21:47:25;;;;;;;;;;;14.10;99.90;;;13.11;100.00;95415.66;10540263;28;1901;-75
2022/10/21 21:52:29;;;;;;;;;;;14.00;99.90;;;13.15;100.00;95419.34;10534008;28;1659;-75
2022/10/21 21:57:31;;;;;;;;;;;14.10;99.90;;;13.15;100.00;95428.25;10536245;28;1636;-76
2022/10/21 22:02:34;;;;;;;;;;;14.10;99.90;;;13.09;100.00;95444.81;10535101;28;1532;-75
2022/10/21 22:07:37;;;;;;;;;;;14.10;99.90;;;13.14;100.00;95458.22;10539396;28;1910;-74
2022/10/21 22:12:40;;;;;;;;;;;14.00;99.90;;;13.09;100.00;95461.81;10531467;28;1695;-74
2022/10/21 22:17:43;;;;;;;;;;;14.10;99.90;;;13.04;100.00;95466.50;10538854;28;1250;-75
2022/10/21 22:22:46;;;;;;;;;;;14.00;99.90;;;13.01;100.00;95469.78;10550883;28;1630;-72
2022/10/21 22:27:48;;;;;;;;;;;13.90;99.90;;;13.03;100.00;95464.88;10525108;28;1913;-75
2022/10/21 22:32:51;;;;;;;;;;;13.90;99.90;;;13.00;100.00;95447.41;10504315;28;1407;-75
2022/10/21 22:37:54;;;;;;;;;;;13.90;99.90;;;12.90;100.00;95464.56;10538489;28;1022;-73
2022/10/21 22:42:57;;;;;;;;;;;13.90;99.90;;;12.90;100.00;95450.28;10533375;28;1561;-75
2022/10/21 22:47:59;;;;;;;;;;;13.90;99.90;;;12.88;100.00;95450.56;10537709;28;1902;-74
2022/10/21 22:53:02;;;;;;;;;;;13.80;99.90;;;12.83;100.00;95442.56;10530217;28;1569;-73
2022/10/21 22:58:05;;;;;;;;;;;13.80;99.90;;;12.85;100.00;95443.09;10532583;28;1937;-74